Time;durP1;ratioP1;P1;durP2;ratioP2;P2;SDS_P1;SDS_P2;PMS_P1;PMS_P2;Temp;Humidity;BMP_temperature;BMP_pressure;BME280_temperature;BME280_humidity;BME280_pressure;Samples;Min_cycle;Max_cycle;Signal;HPM_P1;HPM_P2
2022/04/03 00:01:58;;;;;;;24.35;22.88;;;;;;;;;;5114726;28;20210;-86
2022/04/03 00:04:27;;;;;;;23.85;22.38;;;;;;;;;;5114298;28;20226;-86
2022/04/03 00:06:54;;;;;;;24.10;22.70;;;;;;;;;;5114610;28;20210;-86
2022/04/03 00:09:22;;;;;;;24.73;23.20;;;;;;;;;;5114493;28;20191;-86
2022/04/03 00:11:50;;;;;;;24.27;22.85;;;;;;;;;;5114133;28;20213;-85
2022/04/03 00:14:17;;;;;;;25.63;23.88;;;;;;;;;;5114626;28;20232;-86
2022/04/03 00:16:44;;;;;;;24.45;22.95;;;;;;;;;;5114459;28;20210;-86
2022/04/03 00:19:12;;;;;;;25.33;23.73;;;;;;;;;;5114752;28;20542;-86
2022/04/03 00:21:40;;;;;;;26.55;24.75;;;;;;;;;;5114357;28;20195;-86
2022/04/03 00:24:08;;;;;;;25.50;23.90;;;;;;;;;;5114023;28;20202;-86
2022/04/03 00:26:36;;;;;;;24.42;23.02;;;;;;;;;;5113782;28;20190;-86
2022/04/03 00:29:04;;;;;;;25.88;24.25;;;;;;;;;;5114380;28;20199;-86
2022/04/03 00:31:31;;;;;;;25.42;23.58;;;;;;;;;;5114334;28;20203;-86
2022/04/03 00:33:58;;;;;;;25.05;23.58;;;;;;;;;;5114120;28;20207;-86
2022/04/03 00:36:26;;;;;;;25.15;23.65;;;;;;;;;;5095996;28;20683;-86
2022/04/03 00:38:55;;;;;;;25.40;23.70;;;;;;;;;;5095834;28;20262;-85
2022/04/03 00:41:22;;;;;;;25.52;23.92;;;;;;;;;;5113872;28;20191;-86
2022/04/03 00:43:50;;;;;;;25.20;23.55;;;;;;;;;;5096087;28;20259;-86
2022/04/03 00:46:20;;;;;;;25.45;23.85;;;;;;;;;;5114405;28;20533;-86
2022/04/03 00:48:48;;;;;;;25.13;23.67;;;;;;;;;;5114225;28;20517;-86
2022/04/03 00:51:17;;;;;;;24.95;23.45;;;;;;;;;;5113845;28;20195;-85
2022/04/03 00:53:46;;;;;;;25.10;23.50;;;;;;;;;;5113555;28;20194;-85
2022/04/03 00:56:15;;;;;;;24.63;23.17;;;;;;;;;;5114296;28;20274;-86
2022/04/03 00:58:43;;;;;;;25.13;23.50;;;;;;;;;;5113948;28;20191;-86
2022/04/03 01:01:10;;;;;;;25.80;24.00;;;;;;;;;;5113826;28;20183;-86
2022/04/03 01:03:38;;;;;;;25.30;23.70;;;;;;;;;;5116164;28;20238;-85
2022/04/03 01:06:05;;;;;;;24.17;22.67;;;;;;;;;;5117892;28;20191;-85
2022/04/03 01:08:33;;;;;;;24.88;23.38;;;;;;;;;;5117952;28;20187;-86
2022/04/03 01:11:01;;;;;;;24.02;22.52;;;;;;;;;;5117464;28;20191;-85
2022/04/03 01:13:30;;;;;;;24.92;23.13;;;;;;;;;;5117794;28;20199;-83
2022/04/03 01:15:59;;;;;;;23.98;22.58;;;;;;;;;;5099406;28;20222;-85
2022/04/03 01:18:26;;;;;;;25.30;23.55;;;;;;;;;;5118207;28;20290;-85
2022/04/03 01:20:54;;;;;;;23.55;22.15;;;;;;;;;;5117684;28;20214;-86
2022/04/03 01:23:22;;;;;;;23.80;22.50;;;;;;;;;;5117121;28;20238;-85
2022/04/03 01:25:51;;;;;;;25.13;23.52;;;;;;;;;;5099394;28;20256;-85
2022/04/03 01:28:18;;;;;;;26.08;24.48;;;;;;;;;;5117294;28;20198;-86
2022/04/03 01:30:45;;;;;;;24.30;22.83;;;;;;;;;;5116955;28;20187;-86
2022/04/03 01:33:13;;;;;;;24.70;22.95;;;;;;;;;;5117343;28;20198;-86
2022/04/03 01:35:40;;;;;;;25.95;24.15;;;;;;;;;;5117117;28;20238;-86
2022/04/03 01:38:08;;;;;;;25.60;24.00;;;;;;;;;;5117255;28;20594;-86
2022/04/03 01:40:35;;;;;;;24.85;23.45;;;;;;;;;;5117095;28;20207;-86
2022/04/03 01:43:05;;;;;;;25.60;24.08;;;;;;;;;;5117348;28;20191;-86
2022/04/03 01:45:32;;;;;;;25.42;23.92;;;;;;;;;;5117338;28;20198;-86
2022/04/03 01:48:00;;;;;;;25.08;23.48;;;;;;;;;;5117289;28;20195;-84
2022/04/03 01:50:27;;;;;;;25.35;23.85;;;;;;;;;;5116853;28;20219;-86
2022/04/03 01:52:55;;;;;;;24.73;23.23;;;;;;;;;;5117158;28;20191;-85
2022/04/03 01:55:23;;;;;;;24.90;23.45;;;;;;;;;;5116675;28;20226;-85
2022/04/03 01:57:50;;;;;;;24.80;23.40;;;;;;;;;;5116503;28;20232;-86
2022/04/03 02:00:19;;;;;;;25.38;23.77;;;;;;;;;;5117076;28;20214;-86
2022/04/03 02:02:47;;;;;;;25.15;23.35;;;;;;;;;;5116897;28;20222;-86
2022/04/03 02:05:14;;;;;;;24.33;22.92;;;;;;;;;;5116663;28;20187;-86
2022/04/03 02:07:42;;;;;;;25.27;23.67;;;;;;;;;;5116486;28;20187;-85
2022/04/03 02:10:12;;;;;;;24.45;22.85;;;;;;;;;;5098136;28;20259;-86
2022/04/03 02:12:40;;;;;;;24.42;23.02;;;;;;;;;;5116559;28;20187;-85
2022/04/03 02:15:08;;;;;;;24.48;22.88;;;;;;;;;;5115863;28;20242;-86
2022/04/03 02:17:37;;;;;;;24.90;23.40;;;;;;;;;;5116765;28;20194;-86
2022/04/03 02:20:04;;;;;;;23.83;22.38;;;;;;;;;;5116402;28;20264;-86
2022/04/03 02:22:32;;;;;;;23.90;22.42;;;;;;;;;;5116580;28;20213;-86
2022/04/03 02:24:59;;;;;;;24.17;22.75;;;;;;;;;;5116409;28;20234;-86
2022/04/03 02:27:27;;;;;;;24.88;23.38;;;;;;;;;;5116356;28;20187;-85
2022/04/03 02:29:54;;;;;;;25.02;23.42;;;;;;;;;;5116157;28;20315;-85
2022/04/03 02:32:21;;;;;;;24.75;23.15;;;;;;;;;;5115881;28;20218;-86
2022/04/03 02:34:50;;;;;;;24.00;22.40;;;;;;;;;;5116244;28;20206;-86
2022/04/03 02:37:18;;;;;;;23.48;22.17;;;;;;;;;;5116446;28;20687;-86
2022/04/03 02:39:45;;;;;;;25.13;23.42;;;;;;;;;;5115840;28;20223;-86
2022/04/03 02:42:13;;;;;;;24.10;22.77;;;;;;;;;;5115691;28;20205;-85
2022/04/03 02:44:40;;;;;;;25.38;23.63;;;;;;;;;;5115780;28;20194;-85
2022/04/03 02:47:09;;;;;;;24.23;22.60;;;;;;;;;;5116126;28;20183;-86
2022/04/03 02:49:37;;;;;;;24.05;22.63;;;;;;;;;;5115756;28;20191;-86
2022/04/03 02:52:05;;;;;;;24.33;22.92;;;;;;;;;;5116055;28;20183;-85
2022/04/03 02:54:33;;;;;;;24.88;23.38;;;;;;;;;;5115746;28;20202;-85
2022/04/03 02:57:00;;;;;;;24.65;23.15;;;;;;;;;;5115556;28;20214;-85
2022/04/03 02:59:27;;;;;;;24.33;22.73;;;;;;;;;;5115792;28;20210;-85
2022/04/03 03:01:55;;;;;;;22.83;21.52;;;;;;;;;;5115734;28;20218;-86
2022/04/03 03:04:22;;;;;;;23.25;21.85;;;;;;;;;;5115298;28;20615;-85
2022/04/03 03:06:49;;;;;;;25.75;24.00;;;;;;;;;;5115272;28;20214;-85
2022/04/03 03:09:18;;;;;;;25.10;23.42;;;;;;;;;;5115358;28;20213;-86
2022/04/03 03:11:46;;;;;;;24.30;22.88;;;;;;;;;;5115467;28;20210;-86
2022/04/03 03:14:13;;;;;;;24.08;22.67;;;;;;;;;;5115075;28;20190;-86
2022/04/03 03:16:40;;;;;;;24.73;23.23;;;;;;;;;;5096822;28;20748;-85
2022/04/03 03:19:08;;;;;;;24.00;22.63;;;;;;;;;;5115336;28;20194;-85
2022/04/03 03:21:36;;;;;;;26.30;24.13;;;;;;;;;;5115305;28;20214;-85
2022/04/03 03:24:03;;;;;;;23.58;22.10;;;;;;;;;;5115354;28;20605;-85
2022/04/03 03:26:32;;;;;;;24.42;23.02;;;;;;;;;;5114027;28;20687;-86
2022/04/03 03:29:00;;;;;;;24.45;22.85;;;;;;;;;;5114852;28;20206;-86
2022/04/03 03:31:27;;;;;;;25.88;24.10;;;;;;;;;;5114519;28;20187;-86
2022/04/03 03:33:55;;;;;;;24.08;22.52;;;;;;;;;;5114804;28;20194;-85
2022/04/03 03:36:22;;;;;;;24.75;23.20;;;;;;;;;;5114979;28;20234;-85
2022/04/03 03:38:49;;;;;;;25.60;24.10;;;;;;;;;;5114710;28;20209;-85
2022/04/03 03:41:17;;;;;;;24.83;23.38;;;;;;;;;;5096577;28;20647;-86
2022/04/03 03:43:47;;;;;;;24.55;23.08;;;;;;;;;;5114476;28;20668;-85
2022/04/03 03:46:14;;;;;;;25.30;23.80;;;;;;;;;;5114587;28;20724;-86
2022/04/03 03:48:42;;;;;;;25.50;24.00;;;;;;;;;;5114640;28;20191;-85
2022/04/03 03:51:09;;;;;;;25.40;23.90;;;;;;;;;;5114816;28;20279;-84
2022/04/03 03:53:37;;;;;;;25.02;23.52;;;;;;;;;;5114141;28;20681;-86
2022/04/03 03:56:06;;;;;;;25.33;23.25;;;;;;;;;;5113859;28;20218;-85
2022/04/03 03:58:33;;;;;;;25.70;24.10;;;;;;;;;;5114749;28;20190;-85
2022/04/03 04:01:02;;;;;;;25.58;24.00;;;;;;;;;;5114426;28;20186;-85
2022/04/03 04:03:29;;;;;;;25.67;24.08;;;;;;;;;;5114239;28;20691;-85
2022/04/03 04:05:56;;;;;;;25.52;23.88;;;;;;;;;;5114772;28;20275;-86
2022/04/03 04:08:24;;;;;;;25.15;23.65;;;;;;;;;;5114442;28;20206;-86
2022/04/03 04:10:51;;;;;;;24.15;22.75;;;;;;;;;;5114433;28;20517;-86
2022/04/03 04:13:19;;;;;;;24.73;23.33;;;;;;;;;;5114312;28;20663;-85
2022/04/03 04:15:46;;;;;;;25.40;23.80;;;;;;;;;;5096637;28;20218;-85
2022/04/03 04:18:15;;;;;;;24.65;23.15;;;;;;;;;;5114307;28;20182;-85
2022/04/03 04:20:42;;;;;;;24.95;23.45;;;;;;;;;;5114415;28;20184;-85
2022/04/03 04:23:10;;;;;;;25.15;23.58;;;;;;;;;;5114302;28;20195;-85
2022/04/03 04:25:37;;;;;;;26.27;24.58;;;;;;;;;;5114041;28;20191;-85
2022/04/03 04:28:05;;;;;;;26.05;24.25;;;;;;;;;;5113961;28;20183;-86
2022/04/03 04:30:33;;;;;;;25.33;23.73;;;;;;;;;;5114361;28;20198;-85
2022/04/03 04:33:01;;;;;;;26.15;24.50;;;;;;;;;;5114351;28;20194;-86
2022/04/03 04:35:30;;;;;;;26.52;24.73;;;;;;;;;;5113739;28;20233;-85
2022/04/03 04:37:58;;;;;;;25.73;24.20;;;;;;;;;;5099304;28;20195;-86
2022/04/03 04:40:25;;;;;;;25.95;24.20;;;;;;;;;;5100129;28;20206;-85
2022/04/03 04:42:55;;;;;;;26.77;24.98;;;;;;;;;;5118626;28;20201;-85
2022/04/03 04:45:23;;;;;;;25.40;23.88;;;;;;;;;;5118345;28;20195;-85
2022/04/03 04:47:50;;;;;;;26.77;25.00;;;;;;;;;;5118335;28;20217;-85
2022/04/03 04:50:18;;;;;;;26.90;25.10;;;;;;;;;;5117917;28;20202;-86
2022/04/03 04:52:47;;;;;;;28.05;26.15;;;;;;;;;;5118153;28;20248;-85
2022/04/03 04:55:14;;;;;;;27.35;25.65;;;;;;;;;;5117828;28;20640;-86
2022/04/03 04:57:42;;;;;;;27.33;25.52;;;;;;;;;;5117887;28;20183;-85
2022/04/03 05:00:13;;;;;;;26.90;25.10;;;;;;;;;;5117932;28;20651;-85
2022/04/03 05:02:42;;;;;;;25.55;23.90;;;;;;;;;;5117847;28;20191;-85
2022/04/03 05:05:10;;;;;;;27.48;25.48;;;;;;;;;;5100297;28;20190;-84
2022/04/03 05:07:37;;;;;;;26.92;25.23;;;;;;;;;;5118064;28;20629;-85
2022/04/03 05:10:08;;;;;;;28.25;25.67;;;;;;;;;;5117562;28;20191;-85
2022/04/03 05:12:36;;;;;;;29.60;27.42;;;;;;;;;;5117763;28;20227;-85
2022/04/03 05:15:03;;;;;;;28.52;26.63;;;;;;;;;;5117946;28;20553;-85
2022/04/03 05:17:31;;;;;;;27.38;25.60;;;;;;;;;;5117588;28;20194;-91
2022/04/03 05:19:58;;;;;;;27.45;25.65;;;;;;;;;;5118420;28;20209;-96
2022/04/03 05:22:26;;;;;;;27.85;25.85;;;;;;;;;;5099927;28;20259;-96
2022/04/03 05:24:54;;;;;;;27.15;25.35;;;;;;;;;;5118112;28;20194;-85
2022/04/03 05:27:24;;;;;;;28.48;26.58;;;;;;;;;;5117504;28;20541;-85
2022/04/03 05:29:51;;;;;;;28.42;26.42;;;;;;;;;;5117411;28;20607;-85
2022/04/03 05:32:26;;;;;;;27.27;25.55;;;;;;;;;;5117769;28;20199;-96
2022/04/03 05:34:53;;;;;;;27.92;25.88;;;;;;;;;;5118461;28;20229;-96
2022/04/03 05:37:21;;;;;;;28.00;26.25;;;;;;;;;;5117287;28;20321;-90
2022/04/03 05:39:49;;;;;;;27.27;25.38;;;;;;;;;;5117842;28;20202;-96
2022/04/03 05:42:17;;;;;;;27.70;25.90;;;;;;;;;;5122847;28;20664;-96
2022/04/03 05:44:46;;;;;;;28.38;26.30;;;;;;;;;;5124081;28;20190;-95
2022/04/03 05:47:13;;;;;;;30.00;28.15;;;;;;;;;;5122361;28;20202;-96
2022/04/03 05:49:41;;;;;;;29.55;27.70;;;;;;;;;;5117265;28;20187;-96
2022/04/03 05:52:08;;;;;;;29.58;27.58;;;;;;;;;;5118396;28;20187;-95
2022/04/03 05:54:36;;;;;;;31.08;28.88;;;;;;;;;;5116975;28;20221;-93
2022/04/03 05:57:03;;;;;;;29.38;27.48;;;;;;;;;;5119017;28;20218;-96
2022/04/03 05:59:32;;;;;;;33.38;30.58;;;;;;;;;;5117905;28;20198;-96
2022/04/03 06:02:01;;;;;;;34.15;31.55;;;;;;;;;;5100539;28;20202;-96
2022/04/03 06:04:29;;;;;;;34.60;32.10;;;;;;;;;;5117879;28;20242;-95
2022/04/03 06:06:56;;;;;;;29.10;27.10;;;;;;;;;;5100035;28;20183;-96
2022/04/03 06:09:23;;;;;;;27.63;25.92;;;;;;;;;;5099741;28;20187;-95
2022/04/03 06:11:51;;;;;;;26.90;25.15;;;;;;;;;;5116723;28;20187;-94
2022/04/03 06:14:19;;;;;;;28.92;27.02;;;;;;;;;;5116930;28;20227;-95
2022/04/03 06:16:46;;;;;;;29.70;27.65;;;;;;;;;;5098578;28;20591;-96
2022/04/03 06:19:15;;;;;;;29.90;27.80;;;;;;;;;;5116439;28;20194;-95
2022/04/03 06:21:43;;;;;;;28.35;26.52;;;;;;;;;;5117011;28;20555;-96
2022/04/03 06:24:10;;;;;;;28.55;26.73;;;;;;;;;;5117211;28;20210;-95
2022/04/03 06:26:37;;;;;;;28.25;26.33;;;;;;;;;;5117337;28;20213;-96
2022/04/03 06:29:05;;;;;;;26.90;25.20;;;;;;;;;;5116122;28;20603;-95
2022/04/03 06:31:32;;;;;;;28.27;26.40;;;;;;;;;;5116580;28;20627;-95
2022/04/03 06:34:02;;;;;;;28.05;26.10;;;;;;;;;;5098153;28;20202;-95
2022/04/03 06:36:30;;;;;;;28.55;26.75;;;;;;;;;;5116335;28;20288;-95
2022/04/03 06:38:58;;;;;;;27.23;25.27;;;;;;;;;;5116437;28;20203;-95
2022/04/03 06:41:25;;;;;;;27.50;25.80;;;;;;;;;;5116115;28;20199;-95
2022/04/03 06:43:53;;;;;;;28.23;26.52;;;;;;;;;;5116393;28;20191;-96
2022/04/03 06:46:20;;;;;;;28.75;26.85;;;;;;;;;;5116277;28;20211;-96
2022/04/03 06:48:47;;;;;;;28.48;26.67;;;;;;;;;;5097235;28;20206;-95
2022/04/03 06:51:15;;;;;;;27.83;26.02;;;;;;;;;;5116238;28;20579;-95
2022/04/03 06:53:44;;;;;;;28.15;26.42;;;;;;;;;;5115898;28;20206;-95
2022/04/03 06:56:11;;;;;;;29.30;27.25;;;;;;;;;;5116070;28;20222;-95
2022/04/03 06:58:39;;;;;;;32.20;29.73;;;;;;;;;;5116092;28;20191;-95
2022/04/03 07:01:06;;;;;;;28.52;26.73;;;;;;;;;;5116594;28;20187;-95
2022/04/03 07:03:34;;;;;;;30.00;28.00;;;;;;;;;;5117062;28;20711;-95
2022/04/03 07:06:02;;;;;;;29.30;27.00;;;;;;;;;;5117709;28;20555;-95
2022/04/03 07:08:30;;;;;;;28.48;26.52;;;;;;;;;;5118188;28;20818;-95
2022/04/03 07:10:59;;;;;;;28.40;26.58;;;;;;;;;;5118444;28;20212;-86
2022/04/03 07:13:27;;;;;;;29.92;27.75;;;;;;;;;;5116280;28;20633;-93
2022/04/03 07:15:54;;;;;;;27.17;25.27;;;;;;;;;;5116332;28;20187;-95
2022/04/03 07:18:22;;;;;;;28.35;26.52;;;;;;;;;;5116036;28;20195;-95
2022/04/03 07:20:49;;;;;;;29.73;27.70;;;;;;;;;;5116784;28;20569;-87
2022/04/03 07:23:17;;;;;;;28.70;26.88;;;;;;;;;;5116053;28;20541;-92
2022/04/03 07:25:44;;;;;;;27.38;25.48;;;;;;;;;;5114886;28;20793;-90
2022/04/03 07:28:13;;;;;;;28.90;27.00;;;;;;;;;;5115448;28;20191;-92
2022/04/03 07:30:40;;;;;;;28.00;26.30;;;;;;;;;;5115542;28;20206;-92
2022/04/03 07:33:08;;;;;;;28.38;26.25;;;;;;;;;;5115500;28;20194;-92
2022/04/03 07:35:37;;;;;;;27.70;25.90;;;;;;;;;;5115795;28;20226;-92
2022/04/03 07:38:04;;;;;;;28.85;26.40;;;;;;;;;;5114611;28;20683;-92
2022/04/03 07:40:32;;;;;;;27.48;25.55;;;;;;;;;;5115245;28;20210;-92
2022/04/03 07:42:59;;;;;;;27.33;25.40;;;;;;;;;;5115460;28;20187;-91
2022/04/03 07:45:28;;;;;;;26.92;25.17;;;;;;;;;;5114982;28;20199;-92
2022/04/03 07:47:55;;;;;;;28.98;26.92;;;;;;;;;;5096967;28;20210;-92
2022/04/03 07:50:23;;;;;;;28.52;26.42;;;;;;;;;;5115107;28;20183;-94
2022/04/03 07:52:51;;;;;;;27.60;25.58;;;;;;;;;;5115150;28;20187;-93
2022/04/03 07:55:18;;;;;;;27.92;26.02;;;;;;;;;;5115082;28;20213;-94
2022/04/03 07:57:46;;;;;;;27.02;25.23;;;;;;;;;;5114348;28;20697;-91
2022/04/03 08:00:14;;;;;;;29.00;26.90;;;;;;;;;;5114981;28;20187;-90
2022/04/03 08:02:43;;;;;;;28.40;26.20;;;;;;;;;;5114640;28;20205;-93
2022/04/03 08:05:11;;;;;;;27.33;25.50;;;;;;;;;;5114943;28;20187;-93
2022/04/03 08:07:39;;;;;;;25.45;23.73;;;;;;;;;;5114928;28;20209;-93
2022/04/03 08:10:08;;;;;;;29.27;27.23;;;;;;;;;;5114332;28;20190;-93
2022/04/03 08:12:35;;;;;;;25.20;23.63;;;;;;;;;;5114663;28;20270;-93
2022/04/03 08:15:04;;;;;;;25.70;24.08;;;;;;;;;;5114786;28;20191;-93
2022/04/03 08:17:31;;;;;;;26.70;25.00;;;;;;;;;;5114723;28;20218;-93
2022/04/03 08:20:00;;;;;;;26.70;24.98;;;;;;;;;;5096443;28;20203;-93
2022/04/03 08:22:27;;;;;;;25.80;24.15;;;;;;;;;;5114930;28;20193;-93
2022/04/03 08:24:55;;;;;;;26.73;24.42;;;;;;;;;;5096543;28;20545;-93
2022/04/03 08:27:23;;;;;;;24.20;22.80;;;;;;;;;;5114303;28;20203;-93
2022/04/03 08:29:51;;;;;;;24.17;22.67;;;;;;;;;;5114405;28;20220;-93
2022/04/03 08:32:18;;;;;;;23.80;22.38;;;;;;;;;;5114409;28;20195;-93
2022/04/03 08:34:46;;;;;;;26.15;24.55;;;;;;;;;;5114624;28;20184;-94
2022/04/03 08:37:15;;;;;;;23.85;22.42;;;;;;;;;;5114075;28;20309;-93
2022/04/03 08:39:42;;;;;;;23.58;22.08;;;;;;;;;;5114368;28;20195;-93
2022/04/03 08:42:12;;;;;;;23.13;21.58;;;;;;;;;;5114648;28;20199;-94
2022/04/03 08:44:39;;;;;;;24.17;22.67;;;;;;;;;;5114734;28;20187;-93
2022/04/03 08:47:07;;;;;;;23.00;21.63;;;;;;;;;;5096520;28;20205;-94
2022/04/03 08:49:36;;;;;;;22.75;21.45;;;;;;;;;;5114262;28;20194;-94
2022/04/03 08:52:04;;;;;;;23.67;22.00;;;;;;;;;;5096820;28;20190;-93
2022/04/03 08:54:33;;;;;;;22.58;21.25;;;;;;;;;;5096276;28;20203;-93
2022/04/03 08:57:01;;;;;;;24.30;22.83;;;;;;;;;;5114214;28;20218;-93
2022/04/03 08:59:28;;;;;;;24.13;22.05;;;;;;;;;;5114167;28;20198;-92
2022/04/03 09:01:56;;;;;;;23.98;22.45;;;;;;;;;;5113686;28;20645;-93
2022/04/03 09:04:23;;;;;;;23.10;21.70;;;;;;;;;;5113712;28;20230;-93
2022/04/03 09:06:57;;;;;;;22.88;21.48;;;;;;;;;;5096247;28;20214;-93
2022/04/03 09:09:25;;;;;;;23.83;22.23;;;;;;;;;;5114312;28;20248;-94
2022/04/03 09:12:10;;;;;;;24.13;22.63;;;;;;;;;;5114372;28;20285;-94
2022/04/03 09:14:37;;;;;;;23.02;21.63;;;;;;;;;;5114276;28;20187;-94
2022/04/03 09:17:05;;;;;;;23.52;22.15;;;;;;;;;;5114028;28;20226;-93
2022/04/03 09:19:33;;;;;;;22.73;21.30;;;;;;;;;;5114039;28;20214;-93
2022/04/03 09:22:01;;;;;;;22.55;20.95;;;;;;;;;;5114241;28;20187;-93
2022/04/03 09:24:29;;;;;;;23.00;21.40;;;;;;;;;;5116533;28;20233;-93
2022/04/03 09:26:59;;;;;;;21.02;19.70;;;;;;;;;;5118064;28;20199;-93
2022/04/03 09:29:29;;;;;;;22.30;21.00;;;;;;;;;;5099513;28;20202;-94
2022/04/03 09:31:59;;;;;;;20.80;19.50;;;;;;;;;;5099590;28;20195;-90
2022/04/03 09:34:29;;;;;;;21.33;20.02;;;;;;;;;;5117906;28;20198;-93
2022/04/03 09:36:57;;;;;;;22.27;20.65;;;;;;;;;;5099258;28;20253;-94
2022/04/03 09:39:26;;;;;;;21.73;20.42;;;;;;;;;;5117412;28;20192;-94
2022/04/03 09:41:58;;;;;;;21.92;20.63;;;;;;;;;;5117307;28;20202;-93
2022/04/03 09:44:29;;;;;;;22.27;20.90;;;;;;;;;;5117355;28;20251;-94
2022/04/03 09:47:13;;;;;;;23.17;21.85;;;;;;;;;;5117691;28;20191;-93
2022/04/03 09:49:40;;;;;;;22.40;21.10;;;;;;;;;;5117312;28;20697;-93
2022/04/03 09:52:09;;;;;;;23.00;21.60;;;;;;;;;;5117612;28;20548;-94
2022/04/03 09:54:38;;;;;;;22.15;20.63;;;;;;;;;;5117537;28;20218;-93
2022/04/03 09:57:21;;;;;;;21.80;20.50;;;;;;;;;;5119272;28;20260;-93
2022/04/03 09:59:51;;;;;;;22.75;21.25;;;;;;;;;;5116944;28;20187;-94
2022/04/03 10:02:19;;;;;;;22.08;20.70;;;;;;;;;;5116209;28;20198;-91
2022/04/03 10:04:46;;;;;;;22.52;21.23;;;;;;;;;;5116795;28;20227;-94
2022/04/03 10:07:14;;;;;;;21.58;20.13;;;;;;;;;;5116954;28;20191;-93
2022/04/03 10:09:46;;;;;;;22.83;21.52;;;;;;;;;;5116978;28;20183;-93
2022/04/03 10:12:15;;;;;;;23.60;21.90;;;;;;;;;;5116779;28;20191;-93
2022/04/03 10:14:44;;;;;;;22.55;21.25;;;;;;;;;;5116933;28;20187;-93
2022/04/03 10:17:13;;;;;;;23.33;21.55;;;;;;;;;;5116772;28;20206;-94
2022/04/03 10:19:40;;;;;;;23.65;22.15;;;;;;;;;;5117218;28;20592;-93
2022/04/03 10:22:10;;;;;;;23.83;22.35;;;;;;;;;;5116940;28;20197;-93
2022/04/03 10:24:38;;;;;;;23.15;21.75;;;;;;;;;;5116398;28;20194;-94
2022/04/03 10:27:06;;;;;;;23.52;22.23;;;;;;;;;;5116550;28;20537;-94
2022/04/03 10:29:36;;;;;;;23.10;21.80;;;;;;;;;;5116287;28;20187;-93
2022/04/03 10:32:04;;;;;;;22.40;21.10;;;;;;;;;;5116457;28;20636;-94
2022/04/03 10:34:45;;;;;;;22.65;21.30;;;;;;;;;;5115932;28;20289;-93
2022/04/03 10:37:24;;;;;;;23.80;22.40;;;;;;;;;;5116310;28;20698;-93
2022/04/03 10:39:53;;;;;;;23.10;21.80;;;;;;;;;;5116203;28;20214;-93
2022/04/03 10:42:25;;;;;;;23.15;21.75;;;;;;;;;;5116208;28;20255;-94
2022/04/03 10:45:07;;;;;;;23.45;22.05;;;;;;;;;;5116141;28;20214;-93
2022/04/03 10:47:34;;;;;;;23.55;21.98;;;;;;;;;;5103325;28;20206;-92
2022/04/03 10:50:04;;;;;;;22.88;21.58;;;;;;;;;;5116126;28;20187;-92
2022/04/03 10:52:50;;;;;;;22.17;20.70;;;;;;;;;;5116111;28;20197;-94
2022/04/03 10:55:21;;;;;;;23.45;21.83;;;;;;;;;;5115787;28;20194;-93
2022/04/03 10:57:50;;;;;;;22.85;21.40;;;;;;;;;;5116466;28;20234;-94
2022/04/03 11:00:37;;;;;;;23.50;22.00;;;;;;;;;;5116290;28;20226;-93
2022/04/03 11:03:20;;;;;;;23.23;21.73;;;;;;;;;;5115710;28;20595;-94
2022/04/03 11:05:53;;;;;;;22.20;21.00;;;;;;;;;;5115648;28;20533;-94
2022/04/03 11:08:41;;;;;;;22.15;20.95;;;;;;;;;;5116625;28;20467;-87
2022/04/03 11:11:09;;;;;;;21.77;20.63;;;;;;;;;;5116935;28;20663;-93
2022/04/03 11:13:39;;;;;;;22.25;21.05;;;;;;;;;;5116978;28;20616;-90
2022/04/03 11:16:08;;;;;;;23.13;21.73;;;;;;;;;;5116777;28;20203;-89
2022/04/03 11:18:37;;;;;;;22.17;20.97;;;;;;;;;;5116156;28;20226;-89
2022/04/03 11:21:11;;;;;;;21.73;20.52;;;;;;;;;;5116802;28;20437;-90
2022/04/03 11:23:39;;;;;;;21.45;20.23;;;;;;;;;;5116402;28;20187;-90
2022/04/03 11:26:06;;;;;;;22.30;21.00;;;;;;;;;;5116579;28;20205;-90
2022/04/03 11:28:35;;;;;;;22.40;21.20;;;;;;;;;;5100079;28;20445;-89
2022/04/03 11:31:02;;;;;;;22.10;20.70;;;;;;;;;;5117335;28;20486;-88
2022/04/03 11:33:30;;;;;;;23.02;21.10;;;;;;;;;;5115262;28;20197;-88
2022/04/03 11:36:06;;;;;;;23.20;21.50;;;;;;;;;;5116299;28;20545;-89
2022/04/03 11:38:38;;;;;;;21.70;20.50;;;;;;;;;;5115605;28;20214;-89
2022/04/03 11:41:06;;;;;;;21.75;20.50;;;;;;;;;;5115306;28;20244;-88
2022/04/03 11:43:33;;;;;;;23.17;21.88;;;;;;;;;;5115895;28;20206;-88
2022/04/03 11:46:02;;;;;;;22.00;20.83;;;;;;;;;;5115285;28;20209;-89
2022/04/03 11:48:30;;;;;;;23.70;22.47;;;;;;;;;;5115874;28;20660;-88
2022/04/03 11:51:05;;;;;;;22.55;21.30;;;;;;;;;;5115911;28;20437;-88
2022/04/03 11:53:33;;;;;;;22.88;21.67;;;;;;;;;;5115673;28;20190;-88
2022/04/03 11:56:07;;;;;;;22.55;21.25;;;;;;;;;;5116301;28;20614;-88
2022/04/03 11:58:36;;;;;;;22.98;21.58;;;;;;;;;;5116158;28;20222;-88
2022/04/03 12:01:03;;;;;;;22.88;21.52;;;;;;;;;;5115774;28;20189;-89
2022/04/03 12:03:31;;;;;;;23.58;21.80;;;;;;;;;;5114714;28;20239;-88
2022/04/03 12:06:18;;;;;;;23.10;21.60;;;;;;;;;;5114722;28;20197;-89
2022/04/03 12:08:47;;;;;;;24.80;22.88;;;;;;;;;;5115413;28;20202;-88
2022/04/03 12:11:26;;;;;;;23.30;21.90;;;;;;;;;;5116122;28;20209;-91
2022/04/03 12:13:55;;;;;;;22.80;21.40;;;;;;;;;;5114974;28;20601;-83
2022/04/03 12:16:23;;;;;;;23.00;21.30;;;;;;;;;;5115284;28;20454;-88
2022/04/03 12:18:54;;;;;;;22.35;21.15;;;;;;;;;;5115925;28;20563;-88
2022/04/03 12:21:22;;;;;;;23.08;21.67;;;;;;;;;;5097673;28;20285;-89
2022/04/03 12:24:08;;;;;;;23.15;21.85;;;;;;;;;;5115835;28;20260;-89
2022/04/03 12:26:37;;;;;;;23.48;21.98;;;;;;;;;;5114754;28;20211;-88
2022/04/03 12:29:06;;;;;;;23.52;22.23;;;;;;;;;;5114293;28;20191;-89
2022/04/03 12:31:34;;;;;;;24.63;22.77;;;;;;;;;;5114377;28;20644;-89
2022/04/03 12:34:08;;;;;;;23.02;21.40;;;;;;;;;;5114541;28;20810;-88
2022/04/03 12:36:42;;;;;;;21.00;19.90;;;;;;;;;;5114547;28;20223;-89
2022/04/03 12:39:32;;;;;;;22.67;21.47;;;;;;;;;;5114146;28;20479;-88
2022/04/03 12:42:12;;;;;;;22.37;21.07;;;;;;;;;;5114214;28;20408;-88
2022/04/03 12:44:44;;;;;;;21.60;20.30;;;;;;;;;;5114487;28;20827;-88
2022/04/03 12:47:18;;;;;;;23.57;22.10;;;;;;;;;;5114728;28;20222;-88
2022/04/03 12:49:49;;;;;;;22.97;21.77;;;;;;;;;;5114565;28;20444;-88
2022/04/03 12:52:21;;;;;;;23.55;22.15;;;;;;;;;;5114300;28;20416;-88
2022/04/03 12:54:48;;;;;;;23.02;21.63;;;;;;;;;;5114470;28;20218;-88
2022/04/03 13:00:18;;;;;;;23.20;21.80;;;;;;;;;;5117814;28;20765;-87
2022/04/03 13:02:46;;;;;;;23.30;21.90;;;;;;;;;;5099444;28;20991;-87
2022/04/03 13:05:15;;;;;;;23.70;22.30;;;;;;;;;;5118211;28;20444;-87
2022/04/03 13:07:42;;;;;;;23.65;22.35;;;;;;;;;;5118152;28;20206;-88
2022/04/03 13:10:15;;;;;;;23.97;22.67;;;;;;;;;;5117984;28;20198;-87
2022/04/03 13:12:46;;;;;;;24.30;22.90;;;;;;;;;;5116615;28;20440;-86
2022/04/03 13:15:14;;;;;;;23.60;22.07;;;;;;;;;;5118031;28;20418;-85
2022/04/03 13:17:42;;;;;;;24.73;23.03;;;;;;;;;;5119101;28;20479;-86
2022/04/03 13:20:10;;;;;;;23.60;21.87;;;;;;;;;;5118160;28;20407;-86
2022/04/03 13:22:37;;;;;;;22.97;21.67;;;;;;;;;;5118558;28;20941;-87
2022/04/03 13:25:05;;;;;;;22.57;21.10;;;;;;;;;;5118457;28;20407;-86
2022/04/03 13:27:32;;;;;;;23.20;21.90;;;;;;;;;;5118317;28;20433;-87
2022/04/03 13:30:02;;;;;;;23.73;22.33;;;;;;;;;;5118615;28;20445;-87
2022/04/03 13:32:30;;;;;;;23.13;21.77;;;;;;;;;;5117557;28;20473;-88
2022/04/03 13:34:57;;;;;;;23.03;21.73;;;;;;;;;;5117206;28;20443;-88
2022/04/03 13:37:25;;;;;;;22.63;21.33;;;;;;;;;;5099225;28;20458;-89
2022/04/03 13:39:52;;;;;;;25.93;24.10;;;;;;;;;;5118189;28;20472;-88
2022/04/03 13:42:20;;;;;;;23.70;22.40;;;;;;;;;;5118515;28;20428;-87
2022/04/03 13:44:47;;;;;;;23.03;21.73;;;;;;;;;;5118415;28;20535;-88
2022/04/03 13:47:16;;;;;;;25.37;23.97;;;;;;;;;;5119346;28;20437;-88
2022/04/03 13:49:44;;;;;;;24.63;23.30;;;;;;;;;;5118537;28;20905;-88
2022/04/03 13:52:11;;;;;;;24.47;22.97;;;;;;;;;;5100602;28;20928;-87
2022/04/03 13:54:39;;;;;;;23.63;22.43;;;;;;;;;;5117766;28;20752;-89
2022/04/03 13:57:06;;;;;;;23.30;21.80;;;;;;;;;;5118255;28;20399;-88
2022/04/03 13:59:34;;;;;;;23.90;22.40;;;;;;;;;;5117672;28;20455;-88
2022/04/03 14:02:01;;;;;;;23.33;21.93;;;;;;;;;;5119345;28;20765;-88
2022/04/03 14:04:30;;;;;;;23.40;22.00;;;;;;;;;;5117504;28;20482;-89
2022/04/03 14:06:57;;;;;;;23.03;21.63;;;;;;;;;;5117156;28;20187;-89
2022/04/03 14:09:25;;;;;;;23.20;21.90;;;;;;;;;;5115979;28;20790;-90
2022/04/03 14:11:52;;;;;;;23.73;22.33;;;;;;;;;;5116844;28;20916;-90
2022/04/03 14:14:19;;;;;;;24.60;23.02;;;;;;;;;;5116807;28;20403;-90
2022/04/03 14:16:47;;;;;;;24.00;22.60;;;;;;;;;;5116894;28;20202;-89
2022/04/03 14:19:14;;;;;;;23.80;22.37;;;;;;;;;;5116545;28;20459;-89
2022/04/03 14:21:43;;;;;;;23.10;21.57;;;;;;;;;;5116811;28;20430;-89
2022/04/03 14:24:10;;;;;;;23.40;22.10;;;;;;;;;;5116480;28;20881;-89
2022/04/03 14:26:38;;;;;;;25.07;23.43;;;;;;;;;;5116825;28;20431;-88
2022/04/03 14:29:05;;;;;;;23.90;22.40;;;;;;;;;;5116826;28;20463;-89